Time;durP1;ratioP1;P1;durP2;ratioP2;P2;SDS_P1;SDS_P2;PMS_P1;PMS_P2;Temp;Humidity;BMP_temperature;BMP_pressure;BME280_temperature;BME280_humidity;BME280_pressure;Samples;Min_cycle;Max_cycle;Signal;HPM_P1;HPM_P2
2021/12/18 00:01:43;;;;;;;13.73;7.68;;;23.20;57.10;;;;;;31698978;28;20089;-53
2021/12/18 00:16:46;;;;;;;6.47;5.50;;;23.50;57.50;;;;;;31698620;28;20051;-52
2021/12/18 00:31:48;;;;;;;10.73;6.80;;;23.40;57.00;;;;;;31618248;28;20072;-52
2021/12/18 00:46:50;;;;;;;10.77;6.20;;;23.30;56.80;;;;;;31610356;28;20056;-54
2021/12/18 01:01:52;;;;;;;10.07;6.45;;;23.20;57.10;;;;;;31654928;28;20037;-48
2021/12/18 01:32:17;;;;;;;14.93;11.43;;;23.00;56.40;;;;;;31476776;28;20045;-52
2021/12/18 02:02:27;;;;;;;11.18;8.95;;;23.10;57.20;;;;;;31511149;28;20044;-47
2021/12/18 02:32:51;;;;;;;10.38;8.18;;;23.20;56.60;;;;;;31506995;28;20402;-51
2021/12/18 02:47:54;;;;;;;9.63;7.75;;;23.10;56.60;;;;;;31488121;28;20052;-50
2021/12/18 03:02:57;;;;;;;11.30;7.75;;;23.00;56.90;;;;;;31486315;28;20045;-53
2021/12/18 03:33:20;;;;;;;7.55;6.22;;;22.90;57.60;;;;;;31675948;28;20052;-50
2021/12/18 03:48:22;;;;;;;8.05;5.97;;;23.10;57.80;;;;;;31622752;28;20045;-53
2021/12/18 04:03:25;;;;;;;8.35;6.60;;;23.20;57.30;;;;;;31725074;28;20044;-49
2021/12/18 04:18:27;;;;;;;7.18;5.90;;;23.10;57.20;;;;;;31644822;28;20052;-49
2021/12/18 04:33:29;;;;;;;6.35;5.25;;;23.00;57.70;;;;;;31668739;28;20104;-51
2021/12/18 04:48:31;;;;;;;6.57;5.53;;;22.90;57.60;;;;;;31664455;28;20052;-45
2021/12/18 05:03:35;;;;;;;4.97;4.43;;;22.80;57.80;;;;;;31746344;28;20047;-46
2021/12/18 05:18:38;;;;;;;5.68;4.32;;;23.00;57.80;;;;;;31714289;28;20048;-60
2021/12/18 05:33:40;;;;;;;5.70;4.40;;;23.20;57.10;;;;;;31691302;28;20086;-60
2021/12/18 05:48:42;;;;;;;4.53;3.90;;;23.10;57.10;;;;;;31530299;28;20048;-48
2021/12/18 06:03:44;;;;;;;8.63;4.32;;;23.10;57.70;;;;;;31510624;28;20041;-51
2021/12/18 06:18:50;;;;;;;9.18;4.38;;;23.00;58.30;;;;;;31508269;28;20073;-51
2021/12/18 06:33:52;;;;;;;8.18;3.88;;;22.80;58.80;;;;;;31507058;28;20061;-52
2021/12/18 06:48:55;;;;;;;9.88;4.43;;;22.80;58.90;;;;;;31506200;28;20061;-49
2021/12/18 07:04:04;;;;;;;8.38;4.43;;;23.10;58.70;;;;;;31548062;28;20536;-59
2021/12/18 07:19:06;;;;;;;52.80;40.60;;;23.20;58.10;;;;;;31635950;28;20052;-58
2021/12/18 07:34:08;;;;;;;28.65;20.10;;;22.90;54.00;;;;;;31576356;28;20112;-57
2021/12/18 07:49:10;;;;;;;24.38;18.20;;;23.00;57.10;;;;;;31601096;28;20060;-52
2021/12/18 08:04:12;;;;;;;35.17;20.52;;;22.90;57.00;;;;;;31577877;28;20128;-56
2021/12/18 08:19:15;;;;;;;25.52;17.38;;;22.90;57.60;;;;;;31522011;28;20069;-58
2021/12/18 08:34:20;;;;;;;41.78;23.25;;;23.00;57.30;;;;;;31520097;28;20120;-57
2021/12/18 08:49:23;;;;;;;42.67;21.67;;;23.20;56.90;;;;;;31515982;28;20064;-59
2021/12/18 09:04:26;;;;;;;42.17;26.95;;;23.20;56.90;;;;;;31512619;28;20041;-60
2021/12/18 09:19:28;;;;;;;54.72;30.33;;;23.20;56.80;;;;;;31587553;28;20040;-60
2021/12/18 09:34:31;;;;;;;52.35;28.60;;;23.00;56.70;;;;;;31523895;28;20135;-59
2021/12/18 09:49:33;;;;;;;40.20;23.88;;;22.90;56.70;;;;;;31511612;28;20045;-57
2021/12/18 10:04:37;;;;;;;32.28;20.98;;;23.00;56.60;;;;;;31606624;28;20045;-60
2021/12/18 10:19:39;;;;;;;28.02;18.70;;;23.30;56.10;;;;;;31501785;28;20052;-60
2021/12/18 10:34:48;;;;;;;22.65;15.68;;;23.20;56.10;;;;;;31500164;28;20194;-60
2021/12/18 10:49:51;;;;;;;;;;;23.10;55.90;;;;;;31499621;28;20060;-60
2021/12/18 11:05:11;;;;;;;19.77;14.07;;;23.00;55.80;;;;;;31497089;28;19921;-60
2021/12/18 11:20:13;;;;;;;15.90;11.02;;;22.90;55.50;;;;;;31510032;28;20068;-61
2021/12/18 11:35:20;;;;;;;13.18;9.75;;;23.00;55.70;;;;;;31619714;28;20076;-61
2021/12/18 11:50:31;;;;;;;13.82;9.10;;;23.20;55.30;;;;;;31544033;28;20072;-59
2021/12/18 12:05:46;;;;;;;10.88;8.52;;;23.30;55.20;;;;;;31524475;28;20041;-59
2021/12/18 12:20:48;;;;;;;13.40;8.10;;;23.20;55.30;;;;;;31608404;28;20117;-50
2021/12/18 12:35:57;;;;;;;11.80;7.55;;;23.00;54.90;;;;;;31645281;28;20057;-52
2021/12/18 12:51:00;;;;;;;14.07;5.93;;;22.90;55.60;;;;;;31577332;28;20083;-51
2021/12/18 13:06:30;;;;;;;7.03;5.20;;;22.90;55.60;;;;;;31576904;28;20491;-58
2021/12/18 13:21:36;;;;;;;6.33;4.50;;;23.30;55.00;;;;;;31610458;28;20071;-58
2021/12/18 13:36:57;;;;;;;5.13;4.10;;;23.30;55.00;;;;;;31635150;28;20126;-64
2021/12/18 13:52:02;;;;;;;6.10;3.83;;;23.20;55.10;;;;;;31618995;28;20116;-61
2021/12/18 14:07:04;;;;;;;5.25;3.90;;;23.10;55.20;;;;;;31633096;28;20449;-63
2021/12/18 14:22:07;;;;;;;5.53;3.70;;;23.00;55.30;;;;;;31585980;28;20049;-63
2021/12/18 14:37:14;;;;;;;9.88;5.90;;;22.90;55.40;;;;;;31590762;28;20040;-65
2021/12/18 14:52:16;;;;;;;17.27;6.95;;;23.10;54.40;;;;;;31597503;28;20273;-62
2021/12/18 15:07:27;;;;;;;24.42;6.60;;;23.40;56.30;;;;;;31192998;28;10000589;-63
2021/12/18 15:22:29;;;;;;;15.80;6.18;;;23.30;55.80;;;;;;31567960;28;20117;-64
2021/12/18 15:37:32;;;;;;;12.88;5.63;;;23.20;55.20;;;;;;31525543;28;20104;-63
